Terminal Aerodrome Forecast
Issued by NWS Upton, NY

Home | Current Version | Previous Version | Text Only | Print | Product List | Glossary On
Versions: 1 2 3 4 5 6 7 8 9 10 11 12 13 14 15 16 17 18 19 20 21 22 23 24
288
FTUS41 KOKX 121734
TAFISP
TAF
KISP 121734Z 1218/1318 23007KT P6SM SCT150 BKN250
     FM130000 26005KT P6SM BKN050
     FM130700 27008KT P6SM SCT025 BKN040 PROB30 1307/1310 2SM -SN
      BKN025
     FM131000 30015G23KT P6SM SCT040 BKN080
     FM131300 31023G32KT P6SM SCT050=

USA.gov is the U.S. government's official web portal to all federal, state and local government web resources and services.